createdAt,value
2017-09-22T00:01:42.977Z,99.90
2017-09-22T00:04:15.326Z,99.90
2017-09-22T00:06:47.523Z,99.90
2017-09-22T00:09:19.769Z,99.90
2017-09-22T00:11:51.940Z,99.90
2017-09-22T00:14:24.365Z,99.90
2017-09-22T00:16:56.753Z,99.90
2017-09-22T00:19:29.229Z,99.90
2017-09-22T00:22:01.488Z,99.90
2017-09-22T00:24:40.950Z,99.90
2017-09-22T00:27:13.402Z,99.90
2017-09-22T00:29:46.503Z,99.90
2017-09-22T00:32:19.545Z,99.90
2017-09-22T00:34:51.701Z,99.90
2017-09-22T00:37:24.725Z,99.90
2017-09-22T00:39:57.145Z,99.90
2017-09-22T00:42:30.285Z,99.90
2017-09-22T00:45:02.626Z,99.90
2017-09-22T00:47:34.801Z,99.90
2017-09-22T00:50:06.972Z,99.90
2017-09-22T00:52:39.417Z,99.90
2017-09-22T00:55:11.584Z,99.90
2017-09-22T00:57:44.500Z,99.90
2017-09-22T01:00:16.806Z,99.90
2017-09-22T01:02:49.260Z,99.90
2017-09-22T01:05:21.590Z,99.90
2017-09-22T01:07:53.974Z,99.90
2017-09-22T01:10:26.257Z,99.90
2017-09-22T01:12:59.262Z,99.90
2017-09-22T01:15:31.729Z,99.90
2017-09-22T01:18:04.101Z,99.90
2017-09-22T01:20:36.484Z,99.90
2017-09-22T01:23:08.909Z,99.90
2017-09-22T01:25:41.164Z,99.90
2017-09-22T01:28:13.566Z,99.90
2017-09-22T01:30:45.772Z,99.90
2017-09-22T01:33:18.057Z,99.90
2017-09-22T01:35:50.349Z,99.90
2017-09-22T01:38:22.626Z,99.90
2017-09-22T01:40:54.864Z,99.90
2017-09-22T01:43:27.160Z,99.90
2017-09-22T01:45:59.393Z,99.90
2017-09-22T01:48:31.825Z,99.90
2017-09-22T01:51:04.225Z,99.90
2017-09-22T01:53:36.591Z,99.90
2017-09-22T01:56:08.961Z,99.90
2017-09-22T01:58:41.130Z,99.90
2017-09-22T02:01:14.305Z,99.90
2017-09-22T02:03:46.540Z,99.90
2017-09-22T02:06:18.733Z,99.90
2017-09-22T02:08:51.157Z,99.90
2017-09-22T02:11:23.497Z,99.90
2017-09-22T02:13:55.880Z,99.90
2017-09-22T02:16:28.248Z,99.90
2017-09-22T02:19:00.473Z,99.90
2017-09-22T02:21:33.442Z,99.90
2017-09-22T02:24:06.613Z,99.90
2017-09-22T02:26:40.318Z,99.90
2017-09-22T02:29:12.517Z,99.90
2017-09-22T02:31:44.804Z,99.90
2017-09-22T02:34:17.093Z,99.90
2017-09-22T02:36:49.407Z,99.90
2017-09-22T02:39:21.728Z,99.90
2017-09-22T02:41:54.090Z,99.90
2017-09-22T02:44:26.473Z,99.90
2017-09-22T02:46:58.717Z,99.90
2017-09-22T02:49:31.034Z,99.90
2017-09-22T02:52:03.352Z,99.90
2017-09-22T02:54:35.610Z,99.90
2017-09-22T02:57:07.825Z,99.90
2017-09-22T02:59:40.145Z,99.90
2017-09-22T03:02:12.352Z,99.90
2017-09-22T03:04:44.679Z,99.90
2017-09-22T03:07:17.081Z,99.90
2017-09-22T03:09:49.301Z,99.90
2017-09-22T03:12:21.482Z,99.90
2017-09-22T03:14:53.826Z,99.90
2017-09-22T03:17:26.993Z,99.90
2017-09-22T03:19:59.222Z,99.90
2017-09-22T03:22:31.628Z,99.90
2017-09-22T03:25:04.073Z,99.90
2017-09-22T03:27:37.153Z,99.90
2017-09-22T03:30:09.386Z,99.90
2017-09-22T03:32:41.670Z,99.90
2017-09-22T03:35:14.048Z,99.90
2017-09-22T03:37:46.426Z,99.90
2017-09-22T03:40:19.426Z,99.90
2017-09-22T03:42:51.834Z,99.90
2017-09-22T03:45:24.044Z,99.90
2017-09-22T03:47:56.136Z,99.90
2017-09-22T03:50:28.353Z,99.90
2017-09-22T03:53:00.745Z,99.90
2017-09-22T03:55:33.148Z,99.90
2017-09-22T03:58:06.109Z,99.90
2017-09-22T04:00:38.539Z,99.90
2017-09-22T04:03:10.897Z,99.90
2017-09-22T04:05:43.099Z,99.90
2017-09-22T04:08:15.512Z,99.90
2017-09-22T04:10:47.789Z,99.90
2017-09-22T04:13:20.258Z,99.90
2017-09-22T04:15:52.641Z,99.90
2017-09-22T04:18:25.033Z,99.90
2017-09-22T04:20:57.413Z,99.90
2017-09-22T04:23:29.613Z,99.90
2017-09-22T04:26:01.937Z,99.90
2017-09-22T04:28:34.094Z,99.90
2017-09-22T04:31:06.420Z,99.90
2017-09-22T04:33:38.941Z,99.90
2017-09-22T04:36:11.285Z,99.90
2017-09-22T04:38:43.724Z,99.90
2017-09-22T04:41:16.085Z,99.90
2017-09-22T04:43:48.480Z,99.90
2017-09-22T04:46:20.741Z,99.90
2017-09-22T04:48:52.989Z,99.90
2017-09-22T04:51:25.417Z,99.90
2017-09-22T04:53:57.690Z,99.90
2017-09-22T04:56:30.061Z,99.90
2017-09-22T04:59:02.352Z,99.90
2017-09-22T05:01:35.402Z,99.90
2017-09-22T05:04:07.597Z,99.90
2017-09-22T05:06:39.989Z,99.90
2017-09-22T05:09:12.321Z,99.90
2017-09-22T05:11:44.449Z,99.90
2017-09-22T05:14:16.637Z,99.90
2017-09-22T05:16:49.076Z,99.90
2017-09-22T05:19:21.215Z,99.90
2017-09-22T05:21:53.488Z,99.90
2017-09-22T05:24:25.801Z,99.90
2017-09-22T05:26:58.028Z,99.90
2017-09-22T05:29:30.417Z,99.90
2017-09-22T05:32:03.431Z,99.70
2017-09-22T05:34:35.777Z,99.70
2017-09-22T05:37:08.141Z,99.80
2017-09-22T05:39:40.561Z,99.80
2017-09-22T05:42:12.969Z,99.60
2017-09-22T05:44:45.431Z,99.30
2017-09-22T05:47:17.609Z,99.30
2017-09-22T05:49:50.540Z,98.90
2017-09-22T05:52:22.841Z,98.80
2017-09-22T05:54:55.149Z,98.80
2017-09-22T05:57:27.568Z,98.60
2017-09-22T05:59:59.811Z,98.60
2017-09-22T06:02:32.077Z,97.80
2017-09-22T06:05:05.160Z,85.70
2017-09-22T06:07:37.329Z,85.60
2017-09-22T06:10:09.529Z,80.80
2017-09-22T06:12:41.896Z,77.10
2017-09-22T06:15:14.189Z,73.70
2017-09-22T06:17:46.625Z,70.50
2017-09-22T06:20:19.069Z,68.30
2017-09-22T06:22:52.438Z,73.30
2017-09-22T06:25:24.889Z,73.10
2017-09-22T06:27:57.953Z,82.70
2017-09-22T06:30:30.180Z,82.70
2017-09-22T06:33:02.360Z,85.90
2017-09-22T06:35:35.458Z,88.90
2017-09-22T06:38:07.713Z,88.90
2017-09-22T06:40:39.893Z,90.10
2017-09-22T06:43:12.302Z,90.00
2017-09-22T06:45:45.497Z,88.70
2017-09-22T06:48:17.893Z,88.70
2017-09-22T06:50:51.197Z,85.40
2017-09-22T06:53:23.614Z,85.40
2017-09-22T06:55:55.773Z,85.00
2017-09-22T06:58:28.198Z,77.10
2017-09-22T07:01:00.758Z,70.10
2017-09-22T07:03:33.177Z,66.70
2017-09-22T07:06:05.544Z,66.20
2017-09-22T07:08:37.814Z,58.60
2017-09-22T07:11:10.009Z,59.40
2017-09-22T07:13:42.366Z,60.40
2017-09-22T07:16:14.775Z,56.00
2017-09-22T07:18:47.355Z,50.70
2017-09-22T07:21:20.647Z,47.30
2017-09-22T07:23:53.919Z,45.00
2017-09-22T07:26:26.498Z,45.00
2017-09-22T07:28:59.312Z,42.50
2017-09-22T07:31:32.307Z,41.30
2017-09-22T07:34:05.827Z,44.30
2017-09-22T07:36:39.563Z,42.60
2017-09-22T07:39:12.326Z,42.50
2017-09-22T07:41:45.467Z,41.40
2017-09-22T07:44:17.940Z,41.40
2017-09-22T07:46:50.461Z,39.40
2017-09-22T07:49:23.476Z,35.00
2017-09-22T07:51:57.236Z,36.30
2017-09-22T07:54:29.549Z,36.20
2017-09-22T07:57:01.882Z,36.10
2017-09-22T07:59:34.197Z,37.00
2017-09-22T08:02:07.406Z,33.10
2017-09-22T08:04:40.501Z,33.10
2017-09-22T08:07:12.968Z,32.80
2017-09-22T08:09:45.257Z,33.70
2017-09-22T08:12:17.504Z,32.80
2017-09-22T08:14:50.080Z,32.30
2017-09-22T08:17:22.809Z,32.30
2017-09-22T08:19:55.948Z,32.30
2017-09-22T08:22:28.258Z,32.20
2017-09-22T08:25:00.597Z,32.30
2017-09-22T08:27:32.881Z,32.20
2017-09-22T08:30:05.754Z,32.60
2017-09-22T08:32:38.861Z,30.40
2017-09-22T08:35:12.551Z,30.20
2017-09-22T08:37:44.841Z,30.30
2017-09-22T08:40:17.116Z,30.10
2017-09-22T08:42:49.333Z,30.40
2017-09-22T08:45:22.421Z,28.60
2017-09-22T08:47:54.730Z,28.80
2017-09-22T08:50:27.935Z,29.50
2017-09-22T08:53:00.593Z,29.70
2017-09-22T08:55:33.789Z,30.40
2017-09-22T08:58:09.626Z,30.50
2017-09-22T09:00:42.145Z,30.80
2017-09-22T09:03:14.419Z,30.50
2017-09-22T09:05:46.660Z,29.70
2017-09-22T09:08:19.038Z,29.30
2017-09-22T09:10:51.404Z,31.50
2017-09-22T09:13:23.723Z,33.80
2017-09-22T09:15:55.887Z,37.60
2017-09-22T09:18:28.713Z,43.10
2017-09-22T09:21:01.084Z,42.10
2017-09-22T09:23:33.713Z,42.50
2017-09-22T09:26:05.964Z,38.90
2017-09-22T09:28:39.111Z,38.20
2017-09-22T09:31:11.472Z,38.20
2017-09-22T09:33:43.805Z,38.50
2017-09-22T09:36:16.225Z,34.90
2017-09-22T09:38:48.507Z,33.30
2017-09-22T09:41:20.785Z,36.50
2017-09-22T09:43:53.521Z,36.40
2017-09-22T09:46:25.741Z,33.30
2017-09-22T09:48:58.161Z,37.50
2017-09-22T09:51:30.581Z,38.00
2017-09-22T09:54:03.106Z,38.70
2017-09-22T09:56:35.335Z,35.70
2017-09-22T09:59:07.620Z,35.40
2017-09-22T10:01:39.954Z,31.50
2017-09-22T10:04:12.061Z,33.20
2017-09-22T10:06:44.410Z,31.90
2017-09-22T10:09:16.732Z,32.20
2017-09-22T10:11:49.062Z,34.70
2017-09-22T10:14:21.193Z,34.00
2017-09-22T10:16:53.779Z,32.00
2017-09-22T10:19:25.972Z,30.10
2017-09-22T10:21:58.327Z,28.60
2017-09-22T10:24:31.394Z,30.70
2017-09-22T10:27:04.060Z,30.80
2017-09-22T10:29:36.421Z,31.40
2017-09-22T10:32:08.825Z,33.20
2017-09-22T10:34:40.928Z,36.30
2017-09-22T10:37:13.207Z,38.10
2017-09-22T10:39:45.678Z,35.80
2017-09-22T10:42:18.077Z,36.20
2017-09-22T10:44:50.321Z,38.70
2017-09-22T10:47:22.658Z,41.00
2017-09-22T10:49:55.576Z,33.90
2017-09-22T10:52:27.806Z,33.90
2017-09-22T10:55:00.194Z,31.50
2017-09-22T10:57:32.614Z,30.10
2017-09-22T11:00:04.885Z,29.80
2017-09-22T11:02:37.275Z,29.00
2017-09-22T11:05:09.730Z,29.30
2017-09-22T11:07:42.013Z,29.40
2017-09-22T11:10:14.396Z,30.30
2017-09-22T11:12:47.464Z,31.30
2017-09-22T11:15:19.739Z,31.20
2017-09-22T11:17:52.149Z,29.90
2017-09-22T11:20:25.112Z,26.80
2017-09-22T11:22:57.335Z,27.40
2017-09-22T11:25:29.682Z,26.50
2017-09-22T11:28:02.132Z,26.00
2017-09-22T11:30:34.517Z,26.00
2017-09-22T11:33:06.876Z,26.60
2017-09-22T11:35:39.921Z,29.30
2017-09-22T11:38:12.124Z,29.30
2017-09-22T11:40:45.253Z,29.30
2017-09-22T11:43:17.497Z,29.30
2017-09-22T11:45:49.807Z,30.20
2017-09-22T11:48:22.044Z,28.60
2017-09-22T11:50:54.320Z,31.70
2017-09-22T11:53:26.792Z,31.70
2017-09-22T11:55:59.273Z,30.70
2017-09-22T11:58:31.497Z,30.50
2017-09-22T12:01:03.718Z,31.60
2017-09-22T12:03:36.124Z,32.40
2017-09-22T12:06:08.493Z,34.50
2017-09-22T12:08:40.626Z,34.80
2017-09-22T12:11:12.932Z,33.70
2017-09-22T12:13:46.197Z,31.10
2017-09-22T12:16:18.398Z,31.00
2017-09-22T12:18:50.885Z,29.10
2017-09-22T12:21:23.334Z,29.20
2017-09-22T12:23:55.571Z,28.90
2017-09-22T12:26:27.850Z,31.20
2017-09-22T12:29:07.253Z,31.40
2017-09-22T12:31:39.540Z,32.00
2017-09-22T12:34:11.867Z,31.40
2017-09-22T12:36:44.188Z,35.60
2017-09-22T12:39:16.509Z,33.40
2017-09-22T12:41:48.860Z,35.00
2017-09-22T12:44:21.156Z,33.90
2017-09-22T12:46:54.220Z,32.00
2017-09-22T12:49:26.670Z,31.90
2017-09-22T12:51:58.911Z,33.30
2017-09-22T12:54:31.383Z,32.00
2017-09-22T12:57:03.806Z,33.30
2017-09-22T12:59:36.061Z,33.40
2017-09-22T13:02:08.493Z,34.20
2017-09-22T13:04:40.734Z,34.60
2017-09-22T13:07:13.137Z,35.80
2017-09-22T13:09:45.463Z,33.90
2017-09-22T13:12:17.861Z,34.60
2017-09-22T13:14:50.304Z,32.50
2017-09-22T13:17:23.278Z,31.00
2017-09-22T13:19:55.645Z,30.30
2017-09-22T13:22:27.906Z,31.70
2017-09-22T13:25:01.121Z,33.20
2017-09-22T13:27:33.556Z,33.20
2017-09-22T13:30:05.824Z,34.20
2017-09-22T13:32:38.027Z,33.00
2017-09-22T13:35:10.497Z,33.40
2017-09-22T13:37:43.788Z,34.00
2017-09-22T13:40:16.249Z,34.00
2017-09-22T13:42:49.449Z,34.40
2017-09-22T13:45:22.077Z,34.40
2017-09-22T13:47:54.477Z,35.90
2017-09-22T13:50:27.019Z,34.10
2017-09-22T13:52:59.377Z,33.60
2017-09-22T13:55:31.827Z,33.70
2017-09-22T13:58:04.169Z,34.20
2017-09-22T14:00:36.509Z,36.60
2017-09-22T14:03:08.711Z,37.20
2017-09-22T14:05:41.761Z,35.70
2017-09-22T14:08:14.101Z,35.70
2017-09-22T14:10:46.415Z,36.40
2017-09-22T14:13:18.829Z,35.40
2017-09-22T14:15:51.306Z,35.70
2017-09-22T14:18:23.630Z,35.40
2017-09-22T14:20:56.741Z,35.70
2017-09-22T14:23:29.140Z,35.80
2017-09-22T14:26:01.343Z,37.40
2017-09-22T14:28:34.544Z,34.90
2017-09-22T14:31:06.849Z,34.80
2017-09-22T14:33:39.170Z,34.40
2017-09-22T14:36:11.585Z,35.20
2017-09-22T14:38:43.900Z,36.00
2017-09-22T14:41:16.118Z,35.20
2017-09-22T14:43:48.382Z,37.80
2017-09-22T14:46:21.438Z,36.80
2017-09-22T14:48:54.235Z,36.80
2017-09-22T14:51:26.915Z,36.90
2017-09-22T14:53:59.457Z,36.80
2017-09-22T14:56:32.135Z,40.80
2017-09-22T14:59:04.653Z,40.50
2017-09-22T15:01:37.518Z,38.90
2017-09-22T15:04:11.329Z,39.90
2017-09-22T15:06:43.901Z,40.30
2017-09-22T15:09:16.839Z,41.70
2017-09-22T15:11:50.439Z,42.60
2017-09-22T15:14:23.338Z,42.80
2017-09-22T15:16:57.174Z,43.20
2017-09-22T15:19:30.769Z,43.20
2017-09-22T15:22:03.315Z,43.30
2017-09-22T15:24:36.562Z,45.00
2017-09-22T15:27:09.159Z,44.90
2017-09-22T15:29:41.852Z,44.80
2017-09-22T15:32:14.589Z,45.20
2017-09-22T15:34:47.820Z,45.80
2017-09-22T15:37:21.118Z,45.30
2017-09-22T15:39:54.056Z,45.80
2017-09-22T15:42:26.959Z,45.80
2017-09-22T15:44:59.886Z,46.60
2017-09-22T15:47:33.267Z,45.80
2017-09-22T15:50:06.049Z,45.80
2017-09-22T15:52:38.325Z,46.30
2017-09-22T15:55:10.569Z,45.50
2017-09-22T15:57:42.944Z,46.50
2017-09-22T16:00:15.172Z,46.90
2017-09-22T16:02:47.381Z,46.30
2017-09-22T16:05:19.728Z,47.10
2017-09-22T16:07:52.025Z,48.00
2017-09-22T16:10:24.479Z,48.10
2017-09-22T16:12:56.986Z,49.70
2017-09-22T16:15:29.146Z,48.40
2017-09-22T16:18:01.530Z,48.30
2017-09-22T16:20:34.006Z,48.50
2017-09-22T16:23:06.452Z,49.80
2017-09-22T16:25:38.809Z,49.90
2017-09-22T16:28:11.171Z,50.20
2017-09-22T16:30:43.615Z,50.70
2017-09-22T16:33:16.202Z,51.90
2017-09-22T16:35:48.613Z,52.40
2017-09-22T16:38:21.168Z,53.10
2017-09-22T16:40:54.210Z,53.90
2017-09-22T16:43:26.634Z,53.90
2017-09-22T16:45:59.079Z,54.80
2017-09-22T16:48:31.370Z,55.70
2017-09-22T16:51:03.920Z,55.80
2017-09-22T16:53:36.297Z,56.10
2017-09-22T16:56:08.796Z,56.80
2017-09-22T16:58:41.391Z,56.60
2017-09-22T17:01:13.704Z,57.50
2017-09-22T17:03:46.116Z,57.60
2017-09-22T17:06:19.084Z,58.30
2017-09-22T17:08:52.304Z,58.50
2017-09-22T17:11:24.534Z,58.50
2017-09-22T17:13:57.584Z,59.80
2017-09-22T17:16:29.809Z,59.60
2017-09-22T17:19:02.146Z,59.60
2017-09-22T17:21:34.441Z,59.80
2017-09-22T17:24:06.678Z,60.30
2017-09-22T17:26:38.945Z,60.60
2017-09-22T17:29:12.068Z,62.10
2017-09-22T17:31:44.233Z,62.20
2017-09-22T17:34:16.744Z,63.30
2017-09-22T17:36:50.771Z,64.20
2017-09-22T17:39:23.155Z,64.30
2017-09-22T17:41:55.482Z,64.60
2017-09-22T17:44:27.826Z,65.70
2017-09-22T17:47:00.077Z,65.80
2017-09-22T17:49:32.365Z,65.80
2017-09-22T17:52:04.570Z,65.70
2017-09-22T17:54:36.899Z,66.00
2017-09-22T17:57:09.991Z,66.10
2017-09-22T17:59:42.233Z,66.20
2017-09-22T18:02:15.437Z,66.00
2017-09-22T18:04:48.409Z,66.00
2017-09-22T18:07:20.636Z,66.50
2017-09-22T18:09:53.015Z,67.40
2017-09-22T18:12:25.337Z,68.50
2017-09-22T18:14:57.521Z,67.70
2017-09-22T18:17:29.844Z,67.80
2017-09-22T18:20:02.009Z,67.70
2017-09-22T18:22:34.169Z,68.20
2017-09-22T18:25:06.453Z,68.50
2017-09-22T18:27:39.604Z,69.90
2017-09-22T18:30:12.449Z,69.70
2017-09-22T18:32:45.856Z,71.60
2017-09-22T18:35:18.466Z,71.60
2017-09-22T18:37:50.680Z,72.60
2017-09-22T18:40:22.954Z,71.30
2017-09-22T18:42:56.141Z,72.10
2017-09-22T18:45:28.634Z,72.20
2017-09-22T18:48:00.894Z,72.10
2017-09-22T18:50:33.394Z,72.90
2017-09-22T18:53:05.674Z,72.90
2017-09-22T18:55:38.005Z,72.70
2017-09-22T18:58:10.482Z,74.20
2017-09-22T19:00:42.811Z,73.10
2017-09-22T19:03:15.757Z,73.10
2017-09-22T19:05:47.917Z,73.10
2017-09-22T19:08:21.648Z,74.40
2017-09-22T19:10:53.888Z,72.70
2017-09-22T19:13:26.209Z,73.70
2017-09-22T19:15:58.453Z,73.90
2017-09-22T19:18:30.918Z,72.70
2017-09-22T19:21:04.621Z,75.10
2017-09-22T19:23:36.967Z,75.50
2017-09-22T19:26:09.220Z,75.40
2017-09-22T19:28:41.541Z,76.00
2017-09-22T19:31:13.894Z,78.50
2017-09-22T19:33:46.161Z,78.40
2017-09-22T19:36:18.777Z,78.50
2017-09-22T19:38:51.196Z,79.10
2017-09-22T19:41:23.597Z,78.80
2017-09-22T19:43:56.033Z,79.20
2017-09-22T19:46:28.383Z,78.50
2017-09-22T19:49:00.879Z,78.80
2017-09-22T19:51:33.155Z,78.70
2017-09-22T19:54:05.453Z,77.70
2017-09-22T19:56:37.771Z,77.00
2017-09-22T19:59:10.090Z,77.20
2017-09-22T20:01:42.373Z,78.20
2017-09-22T20:04:15.451Z,77.60
2017-09-22T20:06:47.714Z,77.10
2017-09-22T20:09:20.225Z,77.70
2017-09-22T20:11:52.629Z,77.90
2017-09-22T20:14:25.422Z,77.00
2017-09-22T20:16:57.764Z,78.00
2017-09-22T20:19:30.210Z,78.30
2017-09-22T20:22:02.569Z,80.80
2017-09-22T20:24:35.106Z,79.20
2017-09-22T20:27:07.415Z,81.20
2017-09-22T20:29:39.676Z,82.90
2017-09-22T20:32:12.167Z,84.50
2017-09-22T20:34:44.378Z,85.30
2017-09-22T20:37:16.947Z,84.90
2017-09-22T20:39:49.408Z,83.70
2017-09-22T20:42:21.824Z,81.80
2017-09-22T20:44:54.327Z,81.70
2017-09-22T20:47:26.729Z,83.10
2017-09-22T20:49:59.878Z,81.70
2017-09-22T20:52:32.954Z,82.00
2017-09-22T20:55:05.352Z,82.00
2017-09-22T20:57:37.916Z,81.30
2017-09-22T21:00:10.369Z,81.00
2017-09-22T21:02:42.774Z,80.20
2017-09-22T21:05:15.117Z,82.00
2017-09-22T21:07:47.621Z,82.30
2017-09-22T21:10:20.022Z,81.70
2017-09-22T21:12:52.299Z,82.90
2017-09-22T21:15:24.637Z,85.30
2017-09-22T21:17:57.030Z,84.50
2017-09-22T21:20:29.665Z,84.60
2017-09-22T21:23:02.157Z,83.90
2017-09-22T21:25:34.534Z,84.50
2017-09-22T21:28:06.940Z,85.00
2017-09-22T21:30:39.371Z,84.80
2017-09-22T21:33:11.920Z,85.50
2017-09-22T21:35:44.169Z,85.60
2017-09-22T21:38:16.506Z,85.40
2017-09-22T21:40:48.828Z,85.70
2017-09-22T21:43:21.474Z,85.50
2017-09-22T21:45:53.994Z,86.60
2017-09-22T21:48:26.561Z,86.80
2017-09-22T21:50:59.007Z,87.30
2017-09-22T21:53:31.652Z,87.70
2017-09-22T21:56:04.131Z,88.20
2017-09-22T21:58:36.845Z,87.70
2017-09-22T22:01:09.177Z,89.30
2017-09-22T22:04:02.370Z,89.90
2017-09-22T22:09:38.192Z,91.10
2017-09-22T22:12:11.281Z,89.70
2017-09-22T22:14:43.657Z,89.70
2017-09-22T22:17:16.488Z,90.70
2017-09-22T22:19:48.879Z,92.40
2017-09-22T22:22:22.165Z,90.20
2017-09-22T22:24:54.609Z,90.00
2017-09-22T22:27:27.241Z,91.30
2017-09-22T22:30:00.428Z,92.20
2017-09-22T22:32:32.692Z,92.20
2017-09-22T22:35:05.281Z,93.10
2017-09-22T22:37:37.697Z,93.40
2017-09-22T22:40:10.745Z,93.60
2017-09-22T22:42:43.112Z,93.50
2017-09-22T22:45:15.538Z,94.40
2017-09-22T22:47:47.949Z,95.40
2017-09-22T22:50:20.343Z,95.70
2017-09-22T22:52:52.649Z,96.60
2017-09-22T22:55:25.063Z,97.80
2017-09-22T22:57:57.568Z,99.60
2017-09-22T23:00:29.880Z,99.90
2017-09-22T23:03:02.314Z,98.60
2017-09-22T23:05:34.860Z,96.90
2017-09-22T23:08:07.286Z,94.90
2017-09-22T23:10:39.740Z,95.60
2017-09-22T23:13:12.066Z,94.20
2017-09-22T23:15:44.354Z,93.40
2017-09-22T23:18:16.930Z,93.50
2017-09-22T23:20:49.529Z,93.80
2017-09-22T23:23:21.899Z,93.90
2017-09-22T23:25:54.115Z,94.40
2017-09-22T23:28:26.923Z,95.40
2017-09-22T23:31:00.040Z,97.00
2017-09-22T23:33:32.666Z,97.10
2017-09-22T23:36:05.421Z,98.10
2017-09-22T23:38:38.577Z,99.70
2017-09-22T23:41:11.487Z,99.50
2017-09-22T23:43:45.072Z,99.90
2017-09-22T23:46:17.570Z,99.90
2017-09-22T23:48:49.917Z,99.90
2017-09-22T23:51:22.180Z,99.90
2017-09-22T23:53:54.547Z,99.90
2017-09-22T23:56:26.761Z,99.90
2017-09-22T23:58:59.145Z,99.90
